Point Roberts Airpark

1RL · Washington, Vereinigte Staaten

METAR-Geschichte 1RL · Point Roberts Airpark

Unten siehst du die METARs der letzten paar Tage. Wähle ein Jahr, um ältere METARs ab dem Jahr 2007 zu durchsuchen.

19. Mai 2024

Uhrzeit Code Wetter Temp. Sichtweite Wolkendecke Wind METAR/SPECI
06:00
V
10 °C 12 mi 3.500 ft 040° 040° 3 kt METAR CYVR 191300Z 04003KT 350V060 12SM FEW016 FEW026 BKN035 BKN047 10/08 A3016 RMK SC1CU2SC3SC2 SC TR SLP216
05:00
V
9 °C 12 mi 4.700 ft 050° 050° 3 kt METAR CYVR 191200Z 05003KT 12SM FEW023 SCT031 BKN047 09/08 A3014 RMK CU2SC2SC1 SLP209
04:00
V
9 °C 12 mi - 070° 070° 7 kt METAR CYVR 191100Z 07007KT 12SM FEW024 FEW047 FEW070 09/07 A3012 RMK SC1SC1AC1 SC TR AC TR SLP203
03:00
V
10 °C 12 mi 4.700 ft 100° 100° 5 kt METAR CYVR 191000Z 10005KT 12SM SCT020 SCT026 BKN047 BKN070 10/08 A3012 RMK SC3SC1SC2AC1 SLP202
02:00
V
10 °C 12 mi 7.500 ft 070° 070° 4 kt METAR CYVR 190900Z 07004KT 12SM FEW038 SCT054 BKN075 10/08 A3011 RMK SC1SC4AC3 SC TR SLP198
01:00
V
10 °C 15 mi 7.100 ft 090° 090° 4 kt METAR CYVR 190800Z 09004KT 15SM SCT053 BKN071 10/07 A3010 RMK SC4AC2 SLP195
00:00
V
10 °C 15 mi 7.000 ft 070° 070° 5 kt METAR CYVR 190700Z 07005KT 15SM FEW051 BKN070 10/07 A3009 RMK SC1AC5 SLP191

18. Mai 2024

Uhrzeit Code Wetter Temp. Sichtweite Wolkendecke Wind METAR/SPECI
23:00
V
10 °C 15 mi - 140° 140° 5 kt METAR CYVR 190600Z 14005KT 15SM FEW055 FEW071 10/07 A3008 RMK SC1AC1 SC TR SLP189
22:00
V
11 °C 15 mi - 130° 130° 3 kt METAR CYVR 190500Z 13003KT 15SM FEW050 FEW075 FEW100 11/06 A3007 RMK SC1AC1AC1 SC TR AC TR AC TR SLP186
21:00
V
11 °C 20 mi - 190° 190° 5 kt METAR CYVR 190400Z 19005KT 20SM FEW050 FEW100 11/06 A3005 RMK SC1AC1 SC TR AC TR VIRGA NW SLP179
20:00
V
11 °C 15 mi - 210° 210° 3 kt METAR CYVR 190300Z 21003KT 15SM FEW050 11/06 A3005 RMK CU1 CU TR SLP177
19:00
V
12 °C 20 mi - 220° 220° 5 kt METAR CYVR 190200Z 22005KT 20SM FEW050 12/06 A3004 RMK CU1 CU TR SLP176
18:00
V
13 °C 20 mi - 230° 230° 5 kt METAR CYVR 190100Z 23005KT 210V270 20SM FEW050 FEW220 13/06 A3004 RMK CU1CI1 CU TR CI TR SLP175
17:00
V
13 °C 20 mi - 270° 270° 7 kt METAR CYVR 190000Z 27007KT 240V310 20SM FEW050 FEW080 FEW220 13/07 A3005 RMK CU1AC1CI1 CU TR AC TR CI TR SLP178
16:00
V
14 °C 20 mi - 280° 280° 7 kt METAR CYVR 182300Z 28007KT 20SM FEW050TCU FEW080 FEW220 14/06 A3005 RMK TCU1AC1CI1 AC TR CI TR SLP179
15:00
V
14 °C 20 mi - 290° 290° 8 kt METAR CYVR 182200Z 29008KT 20SM FEW020 FEW050 FEW070 SCT220 14/08 A3005 RMK SC1CU2AC1CI1 SC TR AC TR TCU ASOCTD NE SLP179
14:00
V
13 °C 20 mi 22.000 ft 260° 260° 9 kt METAR CYVR 182100Z 26009KT 20SM FEW017 FEW065 SCT150 BKN220 13/07 A3006 RMK SC1CU2AC1CI2 SC TR TCU ASOCTD E SLP180
13:00
V
13 °C 20 mi 7.300 ft 290° 290° 8 kt METAR CYVR 182000Z 29008KT 20SM FEW018 SCT060 BKN073 BKN220 13/08 A3005 RMK SC1CU2AC3CI1 CI TR TCU ASOCTD NE SLP178
12:00
V
11 °C 12 mi 6.100 ft Var Var 3 kt METAR CYVR 181900Z VRB03KT 12SM FEW013 FEW031 SCT050 BKN061 11/08 A3006 RMK SF1SC2CU1SC4 SF TR SLP180
11:00
V
10 °C 12 mi 3.900 ft 180° 180° 2 kt METAR CYVR 181800Z 18002KT 12SM -RA FEW013 BKN039 OVC048 10/08 A3006 RMK SC2SC3CU3 SLP180
10:00
M
10 °C 12 mi 2.300 ft 090° 090° 6 kt METAR CYVR 181700Z 09006KT 12SM -RA FEW014 BKN023 OVC046 10/08 A3006 RMK SC1SC5CU2 SLP180
09:00
V
10 °C 15 mi 5.600 ft 100° 100° 8 kt METAR CYVR 181600Z 10008KT 15SM -RA FEW012 FEW028 SCT036 OVC056 10/08 A3006 RMK SF1SC2CU1SC5 SF TR SLP181
08:00
M
9 °C 15 mi 2.600 ft 080° 080° 8 kt METAR CYVR 181500Z 08008KT 15SM FEW011 BKN026 BKN034 BKN060 09/08 A3005 RMK SF1SC5SC2CU1 SF TR CU TR SLP178
07:00
M
9 °C 20 mi 2.800 ft 070° 070° 11 kt METAR CYVR 181400Z 07011KT 20SM BKN028 OVC035 09/08 A3004 RMK SC6CU2 SLP175
06:00
V
8 °C 12 mi 4.500 ft 050° 050° 11 kt METAR CYVR 181300Z 05011KT 12SM FEW009 FEW026 SCT032 BKN045 08/08 A3004 RMK SF1SC2SC2SC3 SF TR CU ASOCTD LWR SC SLP175
05:21
V
8 °C 10 mi 4.700 ft 070° 070° 12 kt METAR CYVR 181221Z 07012KT 10SM FEW016 FEW025 SCT032 BKN047 08/08 A3004 RMK SF1SC2SC2SC3 SF TR SLP176
05:00
V
9 °C 10 mi 3.600 ft 060° 060° 11 kt METAR CYVR 181200Z 06011KT 10SM -RA SCT024 BKN036 09/08 A3004 RMK SC4SC3 SLP176
04:33
M
9 °C 10 mi 2.800 ft 060° 060° 10 kt METAR CYVR 181133Z 06010KT 10SM -RA OVC028 09/08 A3005 RMK SC8 SLP178
04:00
V
9 °C 15 mi 3.100 ft 070° 070° 11 kt METAR CYVR 181100Z 07011KT 15SM OVC031 09/08 A3005 RMK SC8 SLP179
03:00
V
9 °C 15 mi 4.900 ft 060° 060° 10 kt METAR CYVR 181000Z 06010KT 15SM SCT032 BKN049 09/08 A3006 RMK SC4SC3 SLP182
02:14
M
10 °C 15 mi 2.800 ft 060° 060° 8 kt METAR CYVR 180914Z 06008KT 15SM -RA BKN028 OVC047 10/08 A3007 RMK SC5SC3 SLP184
02:00
V
10 °C 15 mi 4.600 ft 060° 060° 7 kt METAR CYVR 180900Z 06007KT 15SM SCT030 BKN046 OVC058 10/08 A3007 RMK SC3SC3SC2 SLP184
01:00
V
10 °C 15 mi 5.300 ft 080° 080° 9 kt METAR CYVR 180800Z 08009KT 15SM FEW048 BKN053 BKN066 BKN081 10/08 A3007 RMK SC1SC4AC1AC1 SLP185
00:22
V
11 °C 15 mi 6.200 ft 100° 100° 10 kt METAR CYVR 180722Z 10010KT 15SM -SHRA SCT050 BKN062 BKN085 OVC100 11/07 A3007 RMK SC4SC2AC1AC1 CVCTV CLD EMBD SLP184
00:00
V
11 °C 15 mi 10.000 ft 100° 100° 12 kt METAR CYVR 180700Z 10012KT 15SM FEW048 SCT064 SCT085 BKN100 11/07 A3007 RMK SC1SC2AC1AC1 SLP184

17. Mai 2024

Uhrzeit Code Wetter Temp. Sichtweite Wolkendecke Wind METAR/SPECI
23:00
V
11 °C 15 mi 15.000 ft 100° 100° 10 kt METAR CYVR 180600Z 10010KT 15SM FEW049 FEW063 SCT110 BKN150 BKN200 11/07 A3008 RMK SC1SC2AC2AC1CI1 SC TR CI TR SLP187
22:00
V
11 °C 15 mi - 100° 100° 10 kt METAR CYVR 180500Z 10010KT 15SM FEW050 FEW070 SCT100 SCT200 11/07 A3007 RMK SC1AC2AC1CI1 SC TR SLP186
21:00
V
12 °C 20 mi - 090° 090° 10 kt METAR CYVR 180400Z 09010KT 20SM FEW050 FEW080 SCT100 SCT200 12/07 A3006 RMK SC1AC2AS1CI1 SC TR SLP183
20:00
V
13 °C 20 mi - 100° 100° 8 kt METAR CYVR 180300Z 10008KT 20SM FEW050 SCT100 SCT160 SCT200 13/06 A3008 RMK SC1AC2AS1CI1 CI TR SLP187
19:00
V
14 °C 20 mi 21.000 ft 120° 120° 9 kt METAR CYVR 180200Z 12009KT 20SM FEW050 FEW090 SCT160 BKN210 14/06 A3008 RMK SC1AC1AS2CI2 SLP188
18:00
V
15 °C 20 mi 21.000 ft 140° 140° 11 kt METAR CYVR 180100Z 14011KT 20SM FEW060 FEW170 BKN210 15/05 A3008 RMK CU1AS2CI4 CU TR SLP190
17:00
V
15 °C 20 mi 21.000 ft 140° 140° 12 kt METAR CYVR 180000Z 14012KT 20SM FEW063 SCT190 BKN210 15/05 A3010 RMK SC1AS2CI4 SLP194
16:00
V
16 °C 20 mi 22.000 ft 200° 200° 9 kt METAR CYVR 172300Z 20009KT 20SM FEW055 BKN220 16/04 A3010 RMK CU1CI7 CU TR SLP196
15:00
V
15 °C 20 mi - 200° 200° 10 kt METAR CYVR 172200Z 20010KT 20SM FEW063 SCT220 15/05 A3011 RMK SC1CI3 SLP199
14:23
V
14 °C 20 mi - 210° 210° 9 - 17 kt METAR CYVR 172123Z 21009G17KT 20SM FEW050 FEW063 SCT220 14/06 A3011 RMK CU1SC1CI2 CU TR WSHFT 2106 SLP197
14:00
V
14 °C 20 mi 22.000 ft 270° 270° 6 kt METAR CYVR 172100Z 27006KT 230V310 20SM FEW050 FEW066 BKN220 14/06 A3010 RMK CU1AC2CI3 CU TR SLP196
13:00
V
14 °C 20 mi 22.000 ft 280° 280° 12 kt METAR CYVR 172000Z 28012KT 20SM FEW050 BKN220 14/07 A3009 RMK CU1CI6 CU TR SLP193
12:00
V
13 °C 20 mi - 250° 250° 13 kt METAR CYVR 171900Z 25013KT 20SM FEW050 FEW230 13/07 A3009 RMK CU1CI1 CU TR CI TR SLP192
11:00
V
13 °C 20 mi - 290° 290° 15 kt METAR CYVR 171800Z 29015KT 20SM FEW050 13/06 A3008 RMK CU1 CU TR SLP188
10:00
V
13 °C 20 mi - 280° 280° 12 kt METAR CYVR 171700Z 28012KT 20SM FEW050 13/06 A3007 RMK CU1 CU TR SLP184
09:00
V
12 °C 20 mi - 310° 310° 12 kt METAR CYVR 171600Z 31012KT 20SM FEW050 12/06 A3005 RMK CU1 CU TR SLP179
08:00
V
11 °C 20 mi - 300° 300° 15 kt METAR CYVR 171500Z 30015KT 20SM SKC 11/06 A3003 RMK SLP170
07:00
V
10 °C 20 mi - 290° 290° 15 - 21 kt METAR CYVR 171400Z 29015G21KT 20SM FEW050 10/06 A3000 RMK CU1 CU TR SLP162
06:00
V
9 °C 20 mi - 290° 290° 19 - 26 kt METAR CYVR 171300Z 29019G26KT 20SM FEW050 FEW070 09/06 A2997 RMK CU1AC1 CU TR AC TR SLP150
05:00
V
9 °C 15 mi - 290° 290° 22 - 30 kt METAR CYVR 171200Z 29022G30KT 15SM FEW070 09/05 A2994 RMK AC1 AC TR SLP140
04:00
V
9 °C 15 mi - 290° 290° 24 - 31 kt METAR CYVR 171100Z 29024G31KT 15SM FEW070 09/06 A2992 RMK AC1 AC TR SLP133
03:00
V
10 °C 15 mi - 280° 280° 27 - 35 kt METAR CYVR 171000Z 28027G35KT 15SM FEW080 10/04 A2990 RMK AC1 AC TR SLP127
02:00
V
10 °C 15 mi - 280° 280° 26 - 34 kt METAR CYVR 170900Z 28026G34KT 15SM FEW085 10/04 A2989 RMK AC1 AC TR SLP123
01:00
V
10 °C 15 mi - 280° 280° 23 - 31 kt METAR CYVR 170800Z 28023G31KT 15SM FEW085 10/04 A2988 RMK AC1 AC TR SLP121
00:00
V
11 °C 15 mi - 290° 290° 22 - 28 kt METAR CYVR 170700Z 29022G28KT 15SM FEW082 FEW120 11/04 A2988 RMK AC2AC1 AC TR SLP120

16. Mai 2024

Uhrzeit Code Wetter Temp. Sichtweite Wolkendecke Wind METAR/SPECI
23:00
V
12 °C 15 mi 8.300 ft 270° 270° 21 - 29 kt METAR CYVR 170600Z 27021G29KT 15SM FEW053 FEW070 BKN083 12/04 A2986 RMK SC1AC1AC4 SC TR SLP115
Eine Änderung melden